sensor_id;sensor_type;location;lat;lon;timestamp;P1;durP1;ratioP1;P2;durP2;ratioP2
55497;SDS011;41357;52.806;18.268;2023-05-14T00:00:21;13.98;;;6.25;;
55497;SDS011;41357;52.806;18.268;2023-05-14T00:02:47;11.43;;;6.10;;
55497;SDS011;41357;52.806;18.268;2023-05-14T00:05:13;10.85;;;6.15;;
55497;SDS011;41357;52.806;18.268;2023-05-14T00:07:39;11.45;;;7.93;;
55497;SDS011;41357;52.806;18.268;2023-05-14T00:10:06;10.77;;;5.85;;
55497;SDS011;41357;52.806;18.268;2023-05-14T00:12:32;12.23;;;6.25;;
55497;SDS011;41357;52.806;18.268;2023-05-14T00:14:58;10.40;;;5.90;;
55497;SDS011;41357;52.806;18.268;2023-05-14T00:17:24;13.02;;;6.47;;
55497;SDS011;41357;52.806;18.268;2023-05-14T00:19:50;14.57;;;7.50;;
55497;SDS011;41357;52.806;18.268;2023-05-14T00:22:16;15.45;;;6.68;;
55497;SDS011;41357;52.806;18.268;2023-05-14T00:24:42;13.73;;;7.30;;
55497;SDS011;41357;52.806;18.268;2023-05-14T00:27:09;15.48;;;8.20;;
55497;SDS011;41357;52.806;18.268;2023-05-14T00:29:35;13.02;;;8.25;;
55497;SDS011;41357;52.806;18.268;2023-05-14T00:32:02;13.25;;;6.70;;
55497;SDS011;41357;52.806;18.268;2023-05-14T00:34:28;12.20;;;7.72;;
55497;SDS011;41357;52.806;18.268;2023-05-14T00:36:54;15.52;;;7.97;;
55497;SDS011;41357;52.806;18.268;2023-05-14T00:39:20;15.15;;;7.95;;
55497;SDS011;41357;52.806;18.268;2023-05-14T00:41:46;13.82;;;7.65;;
55497;SDS011;41357;52.806;18.268;2023-05-14T00:44:13;16.38;;;8.35;;
55497;SDS011;41357;52.806;18.268;2023-05-14T00:46:39;15.80;;;7.78;;
55497;SDS011;41357;52.806;18.268;2023-05-14T00:49:05;11.95;;;7.72;;
55497;SDS011;41357;52.806;18.268;2023-05-14T00:51:31;14.52;;;7.55;;
55497;SDS011;41357;52.806;18.268;2023-05-14T00:53:57;15.35;;;7.97;;
55497;SDS011;41357;52.806;18.268;2023-05-14T00:56:23;15.13;;;7.78;;
55497;SDS011;41357;52.806;18.268;2023-05-14T00:58:50;15.65;;;8.40;;
55497;SDS011;41357;52.806;18.268;2023-05-14T01:01:17;13.85;;;8.50;;
55497;SDS011;41357;52.806;18.268;2023-05-14T01:03:43;14.45;;;8.43;;
55497;SDS011;41357;52.806;18.268;2023-05-14T01:11:30;13.18;;;7.57;;
55497;SDS011;41357;52.806;18.268;2023-05-14T01:16:43;18.88;;;9.52;;
55497;SDS011;41357;52.806;18.268;2023-05-14T01:19:16;18.45;;;8.38;;
55497;SDS011;41357;52.806;18.268;2023-05-14T01:21:46;15.55;;;8.70;;
55497;SDS011;41357;52.806;18.268;2023-05-14T01:24:13;13.20;;;8.60;;
55497;SDS011;41357;52.806;18.268;2023-05-14T01:26:39;14.20;;;8.23;;
55497;SDS011;41357;52.806;18.268;2023-05-14T01:29:14;15.25;;;8.70;;
55497;SDS011;41357;52.806;18.268;2023-05-14T01:31:43;17.50;;;9.38;;
55497;SDS011;41357;52.806;18.268;2023-05-14T01:34:10;15.98;;;9.05;;
55497;SDS011;41357;52.806;18.268;2023-05-14T01:36:37;17.73;;;9.55;;
55497;SDS011;41357;52.806;18.268;2023-05-14T01:39:03;18.88;;;9.45;;
55497;SDS011;41357;52.806;18.268;2023-05-14T01:41:33;15.02;;;8.95;;
55497;SDS011;41357;52.806;18.268;2023-05-14T01:44:00;21.67;;;9.57;;
55497;SDS011;41357;52.806;18.268;2023-05-14T01:46:29;12.55;;;8.70;;
55497;SDS011;41357;52.806;18.268;2023-05-14T01:48:55;18.20;;;9.20;;
55497;SDS011;41357;52.806;18.268;2023-05-14T01:51:21;14.55;;;9.38;;
55497;SDS011;41357;52.806;18.268;2023-05-14T01:53:48;16.17;;;10.02;;
55497;SDS011;41357;52.806;18.268;2023-05-14T01:56:14;15.25;;;9.00;;
55497;SDS011;41357;52.806;18.268;2023-05-14T01:58:40;23.85;;;10.90;;
55497;SDS011;41357;52.806;18.268;2023-05-14T02:01:06;15.40;;;8.88;;
55497;SDS011;41357;52.806;18.268;2023-05-14T02:03:32;21.02;;;9.95;;
55497;SDS011;41357;52.806;18.268;2023-05-14T02:05:58;15.98;;;9.27;;
55497;SDS011;41357;52.806;18.268;2023-05-14T02:08:24;15.63;;;7.90;;
55497;SDS011;41357;52.806;18.268;2023-05-14T02:10:50;15.57;;;9.15;;
55497;SDS011;41357;52.806;18.268;2023-05-14T02:13:16;12.57;;;8.68;;
55497;SDS011;41357;52.806;18.268;2023-05-14T02:15:42;18.00;;;9.40;;
55497;SDS011;41357;52.806;18.268;2023-05-14T02:18:08;18.17;;;9.93;;
55497;SDS011;41357;52.806;18.268;2023-05-14T02:20:34;16.90;;;9.07;;
55497;SDS011;41357;52.806;18.268;2023-05-14T02:23:00;22.33;;;9.45;;
55497;SDS011;41357;52.806;18.268;2023-05-14T02:25:27;15.85;;;9.07;;
55497;SDS011;41357;52.806;18.268;2023-05-14T02:27:53;15.52;;;9.20;;
55497;SDS011;41357;52.806;18.268;2023-05-14T02:30:20;16.23;;;9.05;;
55497;SDS011;41357;52.806;18.268;2023-05-14T02:32:46;19.23;;;9.80;;
55497;SDS011;41357;52.806;18.268;2023-05-14T02:35:12;17.48;;;9.65;;
55497;SDS011;41357;52.806;18.268;2023-05-14T02:37:38;19.13;;;10.05;;
55497;SDS011;41357;52.806;18.268;2023-05-14T02:40:04;14.85;;;9.07;;
55497;SDS011;41357;52.806;18.268;2023-05-14T02:42:31;18.48;;;9.90;;
55497;SDS011;41357;52.806;18.268;2023-05-14T02:44:57;16.98;;;9.45;;
55497;SDS011;41357;52.806;18.268;2023-05-14T02:47:23;17.38;;;10.25;;
55497;SDS011;41357;52.806;18.268;2023-05-14T02:49:49;21.02;;;9.57;;
55497;SDS011;41357;52.806;18.268;2023-05-14T02:52:15;22.23;;;9.57;;
55497;SDS011;41357;52.806;18.268;2023-05-14T02:54:42;17.63;;;9.48;;
55497;SDS011;41357;52.806;18.268;2023-05-14T02:57:08;19.08;;;9.77;;
55497;SDS011;41357;52.806;18.268;2023-05-14T02:59:34;17.08;;;9.20;;
55497;SDS011;41357;52.806;18.268;2023-05-14T03:02:00;16.50;;;8.75;;
55497;SDS011;41357;52.806;18.268;2023-05-14T03:04:26;13.85;;;9.13;;
55497;SDS011;41357;52.806;18.268;2023-05-14T03:06:52;14.95;;;9.13;;
55497;SDS011;41357;52.806;18.268;2023-05-14T03:09:18;15.45;;;8.80;;
55497;SDS011;41357;52.806;18.268;2023-05-14T03:11:44;18.02;;;8.88;;
55497;SDS011;41357;52.806;18.268;2023-05-14T03:14:10;15.55;;;8.02;;
55497;SDS011;41357;52.806;18.268;2023-05-14T03:16:36;16.38;;;8.77;;
55497;SDS011;41357;52.806;18.268;2023-05-14T03:19:04;18.27;;;9.18;;
55497;SDS011;41357;52.806;18.268;2023-05-14T03:21:30;13.38;;;9.15;;
55497;SDS011;41357;52.806;18.268;2023-05-14T03:23:56;21.90;;;9.35;;
55497;SDS011;41357;52.806;18.268;2023-05-14T03:26:22;15.05;;;8.48;;
55497;SDS011;41357;52.806;18.268;2023-05-14T03:28:48;12.40;;;8.27;;
55497;SDS011;41357;52.806;18.268;2023-05-14T03:31:14;14.25;;;8.68;;
55497;SDS011;41357;52.806;18.268;2023-05-14T03:33:40;20.58;;;8.45;;
55497;SDS011;41357;52.806;18.268;2023-05-14T03:36:07;13.18;;;8.02;;
55497;SDS011;41357;52.806;18.268;2023-05-14T03:38:33;13.05;;;8.38;;
55497;SDS011;41357;52.806;18.268;2023-05-14T03:40:59;15.02;;;9.25;;
55497;SDS011;41357;52.806;18.268;2023-05-14T03:43:25;18.55;;;8.57;;
55497;SDS011;41357;52.806;18.268;2023-05-14T03:45:51;17.33;;;7.95;;
55497;SDS011;41357;52.806;18.268;2023-05-14T03:48:18;25.88;;;8.98;;
55497;SDS011;41357;52.806;18.268;2023-05-14T03:50:44;14.32;;;8.02;;
55497;SDS011;41357;52.806;18.268;2023-05-14T03:53:10;11.55;;;7.25;;
55497;SDS011;41357;52.806;18.268;2023-05-14T03:55:37;17.15;;;8.57;;
55497;SDS011;41357;52.806;18.268;2023-05-14T03:58:03;19.00;;;8.88;;
55497;SDS011;41357;52.806;18.268;2023-05-14T04:00:37;12.48;;;7.85;;
55497;SDS011;41357;52.806;18.268;2023-05-14T04:03:03;15.27;;;8.07;;
55497;SDS011;41357;52.806;18.268;2023-05-14T04:05:30;15.10;;;7.85;;
55497;SDS011;41357;52.806;18.268;2023-05-14T04:07:56;12.15;;;7.55;;
55497;SDS011;41357;52.806;18.268;2023-05-14T04:10:22;11.63;;;7.25;;
55497;SDS011;41357;52.806;18.268;2023-05-14T04:12:48;12.98;;;7.53;;
55497;SDS011;41357;52.806;18.268;2023-05-14T04:15:14;13.93;;;7.57;;
55497;SDS011;41357;52.806;18.268;2023-05-14T04:17:40;12.50;;;7.65;;
55497;SDS011;41357;52.806;18.268;2023-05-14T04:20:06;14.30;;;7.43;;
55497;SDS011;41357;52.806;18.268;2023-05-14T04:22:33;14.80;;;8.05;;
55497;SDS011;41357;52.806;18.268;2023-05-14T04:24:59;14.85;;;9.05;;
55497;SDS011;41357;52.806;18.268;2023-05-14T04:27:25;14.18;;;8.05;;
55497;SDS011;41357;52.806;18.268;2023-05-14T04:29:51;16.02;;;8.68;;
55497;SDS011;41357;52.806;18.268;2023-05-14T04:32:17;13.82;;;8.02;;
55497;SDS011;41357;52.806;18.268;2023-05-14T04:34:44;15.93;;;9.57;;
55497;SDS011;41357;52.806;18.268;2023-05-14T04:37:11;15.10;;;8.55;;
55497;SDS011;41357;52.806;18.268;2023-05-14T04:39:37;11.85;;;8.13;;
55497;SDS011;41357;52.806;18.268;2023-05-14T04:42:04;13.07;;;8.45;;
55497;SDS011;41357;52.806;18.268;2023-05-14T04:44:32;14.73;;;8.48;;
55497;SDS011;41357;52.806;18.268;2023-05-14T04:46:58;16.77;;;9.45;;
55497;SDS011;41357;52.806;18.268;2023-05-14T04:49:24;14.07;;;9.60;;
55497;SDS011;41357;52.806;18.268;2023-05-14T04:51:50;17.98;;;10.23;;
55497;SDS011;41357;52.806;18.268;2023-05-14T04:54:16;18.88;;;10.40;;
55497;SDS011;41357;52.806;18.268;2023-05-14T04:56:43;18.45;;;11.15;;
55497;SDS011;41357;52.806;18.268;2023-05-14T04:59:09;18.73;;;11.40;;
55497;SDS011;41357;52.806;18.268;2023-05-14T05:01:35;21.10;;;11.75;;
55497;SDS011;41357;52.806;18.268;2023-05-14T05:04:01;19.75;;;12.07;;
55497;SDS011;41357;52.806;18.268;2023-05-14T05:06:27;17.58;;;11.35;;
55497;SDS011;41357;52.806;18.268;2023-05-14T05:08:54;19.45;;;11.90;;
55497;SDS011;41357;52.806;18.268;2023-05-14T05:11:20;20.92;;;13.10;;
55497;SDS011;41357;52.806;18.268;2023-05-14T05:13:46;22.25;;;13.73;;
55497;SDS011;41357;52.806;18.268;2023-05-14T05:16:12;19.33;;;13.65;;
55497;SDS011;41357;52.806;18.268;2023-05-14T05:18:38;22.75;;;13.75;;
55497;SDS011;41357;52.806;18.268;2023-05-14T05:21:04;25.10;;;13.63;;
55497;SDS011;41357;52.806;18.268;2023-05-14T05:23:30;22.80;;;13.10;;
55497;SDS011;41357;52.806;18.268;2023-05-14T05:25:57;18.65;;;12.57;;
55497;SDS011;41357;52.806;18.268;2023-05-14T05:28:23;21.25;;;13.95;;
55497;SDS011;41357;52.806;18.268;2023-05-14T05:30:49;17.48;;;12.43;;
55497;SDS011;41357;52.806;18.268;2023-05-14T05:33:15;18.27;;;13.10;;
55497;SDS011;41357;52.806;18.268;2023-05-14T05:35:41;19.80;;;13.63;;
55497;SDS011;41357;52.806;18.268;2023-05-14T05:38:08;21.70;;;13.95;;
55497;SDS011;41357;52.806;18.268;2023-05-14T05:40:34;19.80;;;13.23;;
55497;SDS011;41357;52.806;18.268;2023-05-14T05:43:00;22.83;;;14.32;;
55497;SDS011;41357;52.806;18.268;2023-05-14T05:45:26;21.05;;;13.52;;
55497;SDS011;41357;52.806;18.268;2023-05-14T05:47:52;25.15;;;14.05;;
55497;SDS011;41357;52.806;18.268;2023-05-14T05:50:18;23.60;;;15.15;;
55497;SDS011;41357;52.806;18.268;2023-05-14T05:52:45;21.67;;;13.63;;
55497;SDS011;41357;52.806;18.268;2023-05-14T05:55:11;23.50;;;14.23;;
55497;SDS011;41357;52.806;18.268;2023-05-14T05:57:37;24.35;;;15.30;;
55497;SDS011;41357;52.806;18.268;2023-05-14T06:00:03;24.83;;;15.30;;
55497;SDS011;41357;52.806;18.268;2023-05-14T06:02:48;24.02;;;14.93;;
55497;SDS011;41357;52.806;18.268;2023-05-14T06:05:14;25.73;;;16.10;;
55497;SDS011;41357;52.806;18.268;2023-05-14T06:07:40;28.83;;;15.57;;
55497;SDS011;41357;52.806;18.268;2023-05-14T06:10:06;21.63;;;14.32;;
55497;SDS011;41357;52.806;18.268;2023-05-14T06:12:33;21.35;;;15.05;;
55497;SDS011;41357;52.806;18.268;2023-05-14T06:14:59;22.00;;;13.73;;
55497;SDS011;41357;52.806;18.268;2023-05-14T06:17:25;17.10;;;12.40;;
55497;SDS011;41357;52.806;18.268;2023-05-14T06:19:51;20.45;;;12.35;;
55497;SDS011;41357;52.806;18.268;2023-05-14T06:22:18;17.50;;;12.55;;
55497;SDS011;41357;52.806;18.268;2023-05-14T06:24:44;22.65;;;12.52;;
55497;SDS011;41357;52.806;18.268;2023-05-14T06:27:10;21.85;;;13.48;;
55497;SDS011;41357;52.806;18.268;2023-05-14T06:29:37;23.40;;;12.95;;
55497;SDS011;41357;52.806;18.268;2023-05-14T06:32:03;20.88;;;12.65;;
55497;SDS011;41357;52.806;18.268;2023-05-14T06:34:29;24.35;;;12.48;;
55497;SDS011;41357;52.806;18.268;2023-05-14T06:36:56;19.33;;;13.07;;
55497;SDS011;41357;52.806;18.268;2023-05-14T06:39:22;19.65;;;13.70;;
55497;SDS011;41357;52.806;18.268;2023-05-14T06:41:48;19.60;;;12.25;;
55497;SDS011;41357;52.806;18.268;2023-05-14T06:44:15;18.08;;;13.20;;
55497;SDS011;41357;52.806;18.268;2023-05-14T06:46:41;22.02;;;13.40;;
55497;SDS011;41357;52.806;18.268;2023-05-14T06:49:07;19.23;;;11.98;;
55497;SDS011;41357;52.806;18.268;2023-05-14T06:51:33;14.60;;;9.88;;
55497;SDS011;41357;52.806;18.268;2023-05-14T06:53:59;12.13;;;8.45;;
55497;SDS011;41357;52.806;18.268;2023-05-14T06:56:25;16.48;;;10.23;;
55497;SDS011;41357;52.806;18.268;2023-05-14T06:58:51;13.95;;;9.50;;
55497;SDS011;41357;52.806;18.268;2023-05-14T07:01:17;16.13;;;10.23;;
55497;SDS011;41357;52.806;18.268;2023-05-14T07:03:43;15.30;;;8.73;;
55497;SDS011;41357;52.806;18.268;2023-05-14T07:06:09;15.20;;;8.77;;
55497;SDS011;41357;52.806;18.268;2023-05-14T07:08:36;12.50;;;8.23;;
55497;SDS011;41357;52.806;18.268;2023-05-14T07:11:02;14.60;;;8.60;;
55497;SDS011;41357;52.806;18.268;2023-05-14T07:13:29;12.90;;;8.10;;
55497;SDS011;41357;52.806;18.268;2023-05-14T07:15:55;13.38;;;8.35;;
55497;SDS011;41357;52.806;18.268;2023-05-14T07:18:21;12.13;;;7.47;;
55497;SDS011;41357;52.806;18.268;2023-05-14T07:20:48;10.75;;;7.18;;
55497;SDS011;41357;52.806;18.268;2023-05-14T07:23:14;9.98;;;6.32;;
55497;SDS011;41357;52.806;18.268;2023-05-14T07:25:40;9.82;;;6.43;;
55497;SDS011;41357;52.806;18.268;2023-05-14T07:28:06;10.55;;;6.20;;
55497;SDS011;41357;52.806;18.268;2023-05-14T07:30:32;11.05;;;5.55;;
55497;SDS011;41357;52.806;18.268;2023-05-14T07:32:58;8.70;;;5.70;;
55497;SDS011;41357;52.806;18.268;2023-05-14T07:35:24;7.63;;;4.50;;
55497;SDS011;41357;52.806;18.268;2023-05-14T07:37:51;8.48;;;4.10;;
55497;SDS011;41357;52.806;18.268;2023-05-14T07:40:17;5.72;;;3.13;;
55497;SDS011;41357;52.806;18.268;2023-05-14T07:42:43;6.95;;;3.60;;
55497;SDS011;41357;52.806;18.268;2023-05-14T07:45:09;7.22;;;3.60;;
55497;SDS011;41357;52.806;18.268;2023-05-14T07:47:36;4.85;;;3.45;;
55497;SDS011;41357;52.806;18.268;2023-05-14T07:50:02;7.00;;;3.70;;
55497;SDS011;41357;52.806;18.268;2023-05-14T07:52:28;6.32;;;3.70;;
55497;SDS011;41357;52.806;18.268;2023-05-14T07:54:54;7.22;;;3.63;;
55497;SDS011;41357;52.806;18.268;2023-05-14T07:57:20;5.78;;;3.80;;
55497;SDS011;41357;52.806;18.268;2023-05-14T07:59:47;5.72;;;3.30;;
55497;SDS011;41357;52.806;18.268;2023-05-14T08:02:13;5.55;;;3.42;;
55497;SDS011;41357;52.806;18.268;2023-05-14T08:04:40;4.63;;;3.17;;
55497;SDS011;41357;52.806;18.268;2023-05-14T08:07:06;5.75;;;3.17;;
55497;SDS011;41357;52.806;18.268;2023-05-14T08:09:32;4.55;;;2.90;;
55497;SDS011;41357;52.806;18.268;2023-05-14T08:11:59;5.63;;;2.88;;
55497;SDS011;41357;52.806;18.268;2023-05-14T08:14:25;6.43;;;3.55;;
55497;SDS011;41357;52.806;18.268;2023-05-14T08:16:51;5.38;;;2.92;;
55497;SDS011;41357;52.806;18.268;2023-05-14T08:19:17;10.43;;;3.13;;
55497;SDS011;41357;52.806;18.268;2023-05-14T08:21:43;7.93;;;3.40;;
55497;SDS011;41357;52.806;18.268;2023-05-14T08:24:10;4.55;;;3.00;;
55497;SDS011;41357;52.806;18.268;2023-05-14T08:26:36;5.88;;;3.13;;
55497;SDS011;41357;52.806;18.268;2023-05-14T08:29:03;8.07;;;3.67;;
55497;SDS011;41357;52.806;18.268;2023-05-14T08:31:29;7.05;;;2.75;;
55497;SDS011;41357;52.806;18.268;2023-05-14T08:33:55;4.53;;;2.97;;
55497;SDS011;41357;52.806;18.268;2023-05-14T08:36:21;6.82;;;3.15;;
55497;SDS011;41357;52.806;18.268;2023-05-14T08:38:47;5.03;;;3.28;;
55497;SDS011;41357;52.806;18.268;2023-05-14T08:41:14;4.32;;;2.75;;
55497;SDS011;41357;52.806;18.268;2023-05-14T08:46:07;5.10;;;2.90;;
55497;SDS011;41357;52.806;18.268;2023-05-14T08:48:34;9.02;;;3.50;;
55497;SDS011;41357;52.806;18.268;2023-05-14T08:51:00;10.45;;;3.50;;
55497;SDS011;41357;52.806;18.268;2023-05-14T08:53:26;4.97;;;2.88;;
55497;SDS011;41357;52.806;18.268;2023-05-14T08:55:53;5.32;;;3.75;;
55497;SDS011;41357;52.806;18.268;2023-05-14T08:58:19;7.20;;;3.00;;
55497;SDS011;41357;52.806;18.268;2023-05-14T09:00:45;14.75;;;3.63;;
55497;SDS011;41357;52.806;18.268;2023-05-14T09:03:11;7.50;;;3.63;;
55497;SDS011;41357;52.806;18.268;2023-05-14T09:05:38;8.77;;;3.33;;
55497;SDS011;41357;52.806;18.268;2023-05-14T09:08:04;9.00;;;3.25;;
55497;SDS011;41357;52.806;18.268;2023-05-14T09:10:30;5.47;;;3.20;;
55497;SDS011;41357;52.806;18.268;2023-05-14T09:12:56;5.88;;;3.35;;
55497;SDS011;41357;52.806;18.268;2023-05-14T09:15:22;5.32;;;3.15;;
55497;SDS011;41357;52.806;18.268;2023-05-14T09:17:51;5.53;;;3.03;;
55497;SDS011;41357;52.806;18.268;2023-05-14T09:20:17;6.03;;;2.88;;
55497;SDS011;41357;52.806;18.268;2023-05-14T09:22:43;6.97;;;3.00;;
55497;SDS011;41357;52.806;18.268;2023-05-14T09:25:10;6.05;;;3.20;;
55497;SDS011;41357;52.806;18.268;2023-05-14T09:27:36;5.50;;;3.13;;
55497;SDS011;41357;52.806;18.268;2023-05-14T09:30:03;4.47;;;2.70;;
55497;SDS011;41357;52.806;18.268;2023-05-14T09:32:42;4.57;;;3.03;;
55497;SDS011;41357;52.806;18.268;2023-05-14T09:35:17;3.67;;;2.67;;
55497;SDS011;41357;52.806;18.268;2023-05-14T09:37:44;5.50;;;2.50;;
55497;SDS011;41357;52.806;18.268;2023-05-14T09:40:10;14.02;;;2.92;;
55497;SDS011;41357;52.806;18.268;2023-05-14T09:42:37;8.18;;;2.90;;
55497;SDS011;41357;52.806;18.268;2023-05-14T09:45:05;4.50;;;2.88;;
55497;SDS011;41357;52.806;18.268;2023-05-14T09:47:37;7.82;;;2.92;;
55497;SDS011;41357;52.806;18.268;2023-05-14T09:50:03;7.85;;;2.80;;
55497;SDS011;41357;52.806;18.268;2023-05-14T09:52:30;4.57;;;2.90;;
55497;SDS011;41357;52.806;18.268;2023-05-14T09:54:56;8.23;;;2.15;;
55497;SDS011;41357;52.806;18.268;2023-05-14T09:57:22;4.63;;;2.10;;
55497;SDS011;41357;52.806;18.268;2023-05-14T09:59:52;9.25;;;2.78;;
55497;SDS011;41357;52.806;18.268;2023-05-14T10:04:53;7.90;;;2.95;;
55497;SDS011;41357;52.806;18.268;2023-05-14T10:07:22;6.25;;;2.38;;
55497;SDS011;41357;52.806;18.268;2023-05-14T10:09:56;5.35;;;2.92;;
55497;SDS011;41357;52.806;18.268;2023-05-14T10:12:22;5.30;;;2.60;;
55497;SDS011;41357;52.806;18.268;2023-05-14T10:14:49;5.90;;;2.40;;
55497;SDS011;41357;52.806;18.268;2023-05-14T10:17:18;5.90;;;2.25;;
55497;SDS011;41357;52.806;18.268;2023-05-14T10:19:46;5.35;;;2.45;;
55497;SDS011;41357;52.806;18.268;2023-05-14T10:22:15;3.63;;;2.60;;
55497;SDS011;41357;52.806;18.268;2023-05-14T10:24:42;3.80;;;2.58;;
55497;SDS011;41357;52.806;18.268;2023-05-14T10:27:22;5.93;;;2.72;;
55497;SDS011;41357;52.806;18.268;2023-05-14T10:29:53;5.70;;;2.50;;
55497;SDS011;41357;52.806;18.268;2023-05-14T10:32:20;4.90;;;3.10;;
55497;SDS011;41357;52.806;18.268;2023-05-14T10:34:48;4.10;;;2.50;;
55497;SDS011;41357;52.806;18.268;2023-05-14T10:37:15;6.57;;;2.35;;
55497;SDS011;41357;52.806;18.268;2023-05-14T10:42:36;10.10;;;2.92;;
55497;SDS011;41357;52.806;18.268;2023-05-14T10:45:08;5.63;;;2.33;;
55497;SDS011;41357;52.806;18.268;2023-05-14T10:47:35;5.40;;;2.58;;
55497;SDS011;41357;52.806;18.268;2023-05-14T10:50:03;5.07;;;2.53;;
55497;SDS011;41357;52.806;18.268;2023-05-14T10:52:30;10.75;;;2.65;;
55497;SDS011;41357;52.806;18.268;2023-05-14T10:54:57;3.58;;;2.50;;
55497;SDS011;41357;52.806;18.268;2023-05-14T10:57:24;8.07;;;2.45;;
55497;SDS011;41357;52.806;18.268;2023-05-14T10:59:52;6.28;;;2.50;;
55497;SDS011;41357;52.806;18.268;2023-05-14T11:02:35;11.15;;;2.22;;
55497;SDS011;41357;52.806;18.268;2023-05-14T11:07:31;5.88;;;2.60;;
55497;SDS011;41357;52.806;18.268;2023-05-14T11:10:04;4.80;;;2.40;;
55497;SDS011;41357;52.806;18.268;2023-05-14T11:12:32;8.25;;;2.40;;
55497;SDS011;41357;52.806;18.268;2023-05-14T11:14:59;4.70;;;2.20;;
55497;SDS011;41357;52.806;18.268;2023-05-14T11:17:26;3.90;;;1.98;;
55497;SDS011;41357;52.806;18.268;2023-05-14T11:19:53;3.25;;;2.47;;
55497;SDS011;41357;52.806;18.268;2023-05-14T11:22:19;3.20;;;2.10;;
55497;SDS011;41357;52.806;18.268;2023-05-14T11:24:45;12.38;;;2.50;;
55497;SDS011;41357;52.806;18.268;2023-05-14T11:27:11;5.95;;;2.30;;
55497;SDS011;41357;52.806;18.268;2023-05-14T11:29:37;8.27;;;2.47;;
55497;SDS011;41357;52.806;18.268;2023-05-14T11:32:04;7.00;;;2.17;;
55497;SDS011;41357;52.806;18.268;2023-05-14T11:34:31;6.32;;;2.47;;
55497;SDS011;41357;52.806;18.268;2023-05-14T11:37:01;6.65;;;3.03;;
55497;SDS011;41357;52.806;18.268;2023-05-14T11:39:27;6.35;;;2.63;;
55497;SDS011;41357;52.806;18.268;2023-05-14T11:41:53;6.80;;;2.35;;
55497;SDS011;41357;52.806;18.268;2023-05-14T11:44:19;5.22;;;2.60;;
55497;SDS011;41357;52.806;18.268;2023-05-14T11:46:52;4.50;;;2.13;;
55497;SDS011;41357;52.806;18.268;2023-05-14T11:49:22;4.47;;;2.22;;
55497;SDS011;41357;52.806;18.268;2023-05-14T11:51:49;4.55;;;2.17;;
55497;SDS011;41357;52.806;18.268;2023-05-14T11:54:15;4.80;;;2.03;;
55497;SDS011;41357;52.806;18.268;2023-05-14T11:56:41;5.40;;;2.33;;
55497;SDS011;41357;52.806;18.268;2023-05-14T11:59:09;8.20;;;2.63;;
55497;SDS011;41357;52.806;18.268;2023-05-14T12:01:36;6.45;;;2.33;;
55497;SDS011;41357;52.806;18.268;2023-05-14T12:04:03;3.20;;;2.00;;
55497;SDS011;41357;52.806;18.268;2023-05-14T12:06:32;4.55;;;2.25;;
55497;SDS011;41357;52.806;18.268;2023-05-14T12:08:58;8.20;;;2.10;;
55497;SDS011;41357;52.806;18.268;2023-05-14T12:11:29;4.85;;;2.40;;
55497;SDS011;41357;52.806;18.268;2023-05-14T12:13:55;2.60;;;1.95;;
55497;SDS011;41357;52.806;18.268;2023-05-14T12:16:21;4.18;;;2.33;;
55497;SDS011;41357;52.806;18.268;2023-05-14T12:18:48;4.78;;;2.20;;
55497;SDS011;41357;52.806;18.268;2023-05-14T12:21:14;4.30;;;2.50;;
55497;SDS011;41357;52.806;18.268;2023-05-14T12:23:40;6.38;;;2.55;;
55497;SDS011;41357;52.806;18.268;2023-05-14T12:26:07;3.33;;;2.10;;
55497;SDS011;41357;52.806;18.268;2023-05-14T12:28:33;5.05;;;2.35;;
55497;SDS011;41357;52.806;18.268;2023-05-14T12:31:00;3.03;;;2.35;;
55497;SDS011;41357;52.806;18.268;2023-05-14T12:33:26;7.20;;;2.17;;
55497;SDS011;41357;52.806;18.268;2023-05-14T12:35:53;5.25;;;2.60;;
55497;SDS011;41357;52.806;18.268;2023-05-14T12:38:25;7.15;;;2.38;;
55497;SDS011;41357;52.806;18.268;2023-05-14T12:40:51;5.63;;;2.53;;
55497;SDS011;41357;52.806;18.268;2023-05-14T12:43:18;4.70;;;2.30;;
55497;SDS011;41357;52.806;18.268;2023-05-14T12:45:44;6.10;;;2.17;;
55497;SDS011;41357;52.806;18.268;2023-05-14T12:48:10;13.63;;;2.60;;
55497;SDS011;41357;52.806;18.268;2023-05-14T12:50:37;5.03;;;2.30;;
55497;SDS011;41357;52.806;18.268;2023-05-14T12:53:03;6.78;;;2.55;;
55497;SDS011;41357;52.806;18.268;2023-05-14T12:55:30;4.30;;;2.28;;
55497;SDS011;41357;52.806;18.268;2023-05-14T12:57:56;4.07;;;2.15;;
55497;SDS011;41357;52.806;18.268;2023-05-14T13:00:22;5.30;;;2.85;;
55497;SDS011;41357;52.806;18.268;2023-05-14T13:02:48;6.70;;;2.50;;
55497;SDS011;41357;52.806;18.268;2023-05-14T13:05:14;9.32;;;2.38;;
55497;SDS011;41357;52.806;18.268;2023-05-14T13:07:40;8.55;;;2.40;;
55497;SDS011;41357;52.806;18.268;2023-05-14T13:10:07;8.30;;;2.85;;
55497;SDS011;41357;52.806;18.268;2023-05-14T13:12:33;6.03;;;2.38;;
55497;SDS011;41357;52.806;18.268;2023-05-14T13:14:59;6.63;;;2.50;;
55497;SDS011;41357;52.806;18.268;2023-05-14T13:17:25;3.97;;;2.15;;
55497;SDS011;41357;52.806;18.268;2023-05-14T13:19:51;6.15;;;2.80;;
55497;SDS011;41357;52.806;18.268;2023-05-14T13:22:17;7.50;;;2.20;;
55497;SDS011;41357;52.806;18.268;2023-05-14T13:24:44;3.85;;;2.22;;
55497;SDS011;41357;52.806;18.268;2023-05-14T13:27:10;5.50;;;2.50;;
55497;SDS011;41357;52.806;18.268;2023-05-14T13:29:36;9.75;;;2.17;;
55497;SDS011;41357;52.806;18.268;2023-05-14T13:32:02;5.32;;;2.30;;
55497;SDS011;41357;52.806;18.268;2023-05-14T13:34:28;5.03;;;2.30;;
55497;SDS011;41357;52.806;18.268;2023-05-14T13:36:54;4.25;;;2.10;;
55497;SDS011;41357;52.806;18.268;2023-05-14T13:39:21;6.05;;;2.20;;
55497;SDS011;41357;52.806;18.268;2023-05-14T13:41:50;4.27;;;1.93;;
55497;SDS011;41357;52.806;18.268;2023-05-14T13:44:17;3.83;;;2.08;;
55497;SDS011;41357;52.806;18.268;2023-05-14T13:46:43;5.95;;;2.10;;
55497;SDS011;41357;52.806;18.268;2023-05-14T13:49:09;7.43;;;1.95;;
55497;SDS011;41357;52.806;18.268;2023-05-14T13:51:35;4.30;;;2.10;;
55497;SDS011;41357;52.806;18.268;2023-05-14T13:54:01;5.88;;;2.15;;
55497;SDS011;41357;52.806;18.268;2023-05-14T13:56:28;8.82;;;2.25;;
55497;SDS011;41357;52.806;18.268;2023-05-14T13:58:54;4.63;;;2.08;;
55497;SDS011;41357;52.806;18.268;2023-05-14T14:01:20;9.95;;;2.42;;
55497;SDS011;41357;52.806;18.268;2023-05-14T14:03:47;7.40;;;1.88;;
55497;SDS011;41357;52.806;18.268;2023-05-14T14:06:13;4.10;;;2.05;;
55497;SDS011;41357;52.806;18.268;2023-05-14T14:08:39;8.15;;;1.92;;
55497;SDS011;41357;52.806;18.268;2023-05-14T14:11:05;9.63;;;2.22;;
55497;SDS011;41357;52.806;18.268;2023-05-14T14:13:31;5.78;;;2.05;;
55497;SDS011;41357;52.806;18.268;2023-05-14T14:15:58;6.95;;;1.95;;
55497;SDS011;41357;52.806;18.268;2023-05-14T14:18:24;7.97;;;2.50;;
55497;SDS011;41357;52.806;18.268;2023-05-14T14:20:50;8.55;;;1.95;;
55497;SDS011;41357;52.806;18.268;2023-05-14T14:23:16;5.32;;;2.33;;
55497;SDS011;41357;52.806;18.268;2023-05-14T14:25:42;6.18;;;2.40;;
55497;SDS011;41357;52.806;18.268;2023-05-14T14:28:09;8.40;;;2.47;;
55497;SDS011;41357;52.806;18.268;2023-05-14T14:30:35;3.92;;;2.35;;
55497;SDS011;41357;52.806;18.268;2023-05-14T14:33:01;6.07;;;1.90;;
55497;SDS011;41357;52.806;18.268;2023-05-14T14:35:27;3.88;;;2.10;;
55497;SDS011;41357;52.806;18.268;2023-05-14T14:37:54;2.33;;;1.40;;
55497;SDS011;41357;52.806;18.268;2023-05-14T14:40:20;5.20;;;1.60;;